Time;durP1;ratioP1;P1;durP2;ratioP2;P2;SDS_P1;SDS_P2;PMS_P1;PMS_P2;Temp;Humidity;BMP_temperature;BMP_pressure;BME280_temperature;BME280_humidity;BME280_pressure;Samples;Min_cycle;Max_cycle;Signal;HPM_P1;HPM_P2
2022/05/29 00:02:05;;;;;;;13.60;5.68;;;;;;;14.89;46.48;101762.47;5005605;28;20061;-64
2022/05/29 00:04:34;;;;;;;11.55;4.72;;;;;;;14.89;46.26;101759.75;5002640;28;20050;-64
2022/05/29 00:07:03;;;;;;;11.40;5.55;;;;;;;14.88;46.25;101766.22;5004618;28;20054;-64
2022/05/29 00:09:35;;;;;;;9.70;4.68;;;;;;;14.90;46.45;101761.41;5005614;28;20069;-64
2022/05/29 00:12:06;;;;;;;11.55;5.03;;;;;;;14.90;46.11;101767.66;5004360;28;20083;-64
2022/05/29 00:14:35;;;;;;;10.55;4.95;;;;;;;14.90;46.33;101758.69;4995144;28;20069;-64
2022/05/29 00:17:03;;;;;;;10.70;5.13;;;;;;;14.88;46.31;101756.22;5005865;28;20065;-64
2022/05/29 00:19:32;;;;;;;9.57;4.47;;;;;;;14.89;46.45;101757.06;4991628;28;20070;-64
2022/05/29 00:22:02;;;;;;;9.15;3.97;;;;;;;14.89;46.49;101754.34;4998081;28;20046;-64
2022/05/29 00:24:30;;;;;;;10.23;3.92;;;;;;;14.88;46.25;101753.53;5003810;28;20078;-64
2022/05/29 00:26:58;;;;;;;15.10;4.10;;;;;;;14.88;46.66;101749.97;5003685;28;20089;-64
2022/05/29 00:29:26;;;;;;;7.47;3.33;;;;;;;14.88;46.74;101753.53;5005302;28;20046;-64
2022/05/29 00:31:53;;;;;;;8.38;3.30;;;;;;;14.87;46.37;101751.03;5005003;28;20083;-64
2022/05/29 00:34:21;;;;;;;9.48;4.03;;;;;;;14.85;46.41;101748.56;5004535;28;20061;-64
2022/05/29 00:36:50;;;;;;;7.30;2.75;;;;;;;14.84;46.56;101744.19;5003294;28;20082;-64
2022/05/29 00:39:18;;;;;;;9.00;3.13;;;;;;;14.84;46.42;101748.78;5004274;28;20119;-64
2022/05/29 00:41:47;;;;;;;7.80;3.17;;;;;;;14.81;46.71;101741.13;5004379;28;20535;-64
2022/05/29 00:44:17;;;;;;;6.18;2.38;;;;;;;14.81;46.56;101736.53;5004309;28;20088;-64
2022/05/29 00:46:46;;;;;;;8.93;2.67;;;;;;;14.80;46.53;101743.00;5003732;28;20082;-64
2022/05/29 00:49:15;;;;;;;7.82;2.90;;;;;;;14.79;46.55;101738.66;5002739;28;20116;-63
2022/05/29 00:51:48;;;;;;;6.75;2.75;;;;;;;14.77;46.46;101734.50;5005075;28;20128;-64
2022/05/29 00:54:18;;;;;;;6.40;2.70;;;;;;;14.77;46.54;101726.41;5005066;28;20086;-64
2022/05/29 00:56:47;;;;;;;6.68;2.63;;;;;;;14.75;46.95;101729.34;5004919;28;20057;-63
2022/05/29 00:59:19;;;;;;;6.07;2.10;;;;;;;14.73;46.51;101728.72;5002291;28;20050;-64
2022/05/29 01:01:47;;;;;;;8.63;2.30;;;;;;;14.72;46.30;101720.84;5003396;28;20415;-63
2022/05/29 01:04:15;;;;;;;7.53;2.70;;;;;;;14.70;46.89;101722.94;5003650;28;20089;-63
2022/05/29 01:06:43;;;;;;;7.25;2.22;;;;;;;14.69;46.69;101719.41;5002166;28;20042;-63
2022/05/29 01:09:11;;;;;;;5.22;2.30;;;;;;;14.68;46.86;101714.25;5003792;28;20050;-63
2022/05/29 01:12:00;;;;;;;4.43;1.90;;;;;;;14.68;46.77;101716.94;5004685;28;20077;-63
2022/05/29 01:14:37;;;;;;;7.63;2.45;;;;;;;14.66;46.79;101706.34;5004133;28;20047;-63
2022/05/29 01:17:21;;;;;;;8.43;2.35;;;;;;;14.65;46.75;101704.69;5003075;28;20042;-63
2022/05/29 01:20:07;;;;;;;5.13;2.03;;;;;;;14.64;46.35;101708.44;5003429;28;20084;-63
2022/05/29 01:23:38;;;;;;;4.25;1.90;;;;;;;14.64;46.88;101705.75;5003788;28;20061;-63
2022/05/29 01:26:25;;;;;;;5.72;2.30;;;;;;;14.61;46.93;101703.50;4937168;29;20079;-63
2022/05/29 01:28:56;;;;;;;4.25;1.83;;;;;;;14.60;46.77;101699.97;4924588;29;20040;-63
2022/05/29 01:31:43;;;;;;;4.10;1.70;;;;;;;14.58;46.58;101691.25;4922875;29;20282;-63
2022/05/29 01:34:23;;;;;;;6.60;2.55;;;;;;;14.59;46.75;101692.91;4927836;29;20052;-63
2022/05/29 01:37:02;;;;;;;8.63;2.15;;;;;;;14.58;46.82;101699.38;4922632;29;20047;-63
2022/05/29 01:39:34;;;;;;;5.13;1.90;;;;;;;14.56;47.09;101689.81;4929943;29;20310;-62
2022/05/29 01:42:07;;;;;;;6.15;1.80;;;;;;;14.56;47.23;101687.13;4931257;29;20084;-63
2022/05/29 01:44:41;;;;;;;6.90;1.77;;;;;;;14.54;47.49;101687.34;4940988;29;20083;-62
2022/05/29 01:47:15;;;;;;;5.72;2.35;;;;;;;14.55;47.68;101678.19;4942411;29;20075;-62
2022/05/29 01:49:50;;;;;;;9.52;2.30;;;;;;;14.53;47.48;101677.59;4928319;29;20079;-63
2022/05/29 01:52:21;;;;;;;6.07;2.22;;;;;;;14.55;47.40;101686.28;4942349;29;20536;-63
2022/05/29 01:54:54;;;;;;;6.45;1.75;;;;;;;14.54;47.69;101676.53;4940551;29;20154;-63
2022/05/29 01:57:26;;;;;;;3.95;1.60;;;;;;;14.53;47.70;101679.47;4943611;29;20083;-63
2022/05/29 02:00:00;;;;;;;4.75;1.90;;;;;;;14.51;47.21;101679.69;4958197;28;20466;-63
2022/05/29 02:02:34;;;;;;;7.05;1.88;;;;;;;14.49;47.47;101676.38;4962034;29;20118;-63
2022/05/29 02:05:07;;;;;;;3.85;1.63;;;;;;;14.47;47.67;101670.38;4964599;28;20051;-63
2022/05/29 02:07:50;;;;;;;6.45;1.98;;;;;;;14.46;47.47;101671.44;4963910;28;20086;-62
2022/05/29 02:10:27;;;;;;;5.72;1.80;;;;;;;14.45;47.22;101666.25;4964436;28;20117;-63
2022/05/29 02:13:06;;;;;;;7.13;1.73;;;;;;;14.44;47.67;101672.72;4965180;28;20075;-63
2022/05/29 02:15:42;;;;;;;7.00;1.80;;;;;;;14.43;47.67;101666.47;4967792;29;20131;-63
2022/05/29 02:18:17;;;;;;;2.97;1.42;;;;;;;14.42;47.59;101669.41;4968335;28;20079;-63
2022/05/29 02:20:49;;;;;;;6.63;2.25;;;;;;;14.41;47.76;101670.44;4968436;28;20043;-63
2022/05/29 02:23:24;;;;;;;7.57;2.10;;;;;;;14.39;47.54;101667.13;4967495;28;20055;-63
2022/05/29 02:25:54;;;;;;;8.68;2.08;;;;;;;14.38;47.50;101663.59;4969419;28;20476;-63
2022/05/29 02:28:27;;;;;;;4.85;1.70;;;;;;;14.38;47.38;101662.78;4966602;28;20377;-62
2022/05/29 02:31:05;;;;;;;3.70;1.20;;;;;;;14.36;47.35;101659.47;4968578;28;20113;-63
2022/05/29 02:33:41;;;;;;;5.28;2.17;;;;;;;14.34;47.36;101655.09;4967058;28;20058;-63
2022/05/29 02:36:23;;;;;;;6.05;1.65;;;;;;;14.33;47.16;101653.47;4963709;29;20577;-65
2022/05/29 02:39:04;;;;;;;5.47;2.00;;;;;;;14.31;47.32;101649.31;4955964;29;20054;-63
2022/05/29 02:41:46;;;;;;;8.70;2.17;;;;;;;14.31;47.48;101654.75;4992232;28;20100;-64
2022/05/29 02:44:22;;;;;;;7.88;1.70;;;;;;;14.29;47.77;101656.84;4998076;28;20046;-63
2022/05/29 02:46:57;;;;;;;7.25;2.28;;;;;;;14.29;47.77;101652.25;5006566;28;20050;-62
2022/05/29 02:49:32;;;;;;;6.45;1.98;;;;;;;14.28;47.94;101656.00;4990018;28;20061;-63
2022/05/29 02:52:05;;;;;;;5.50;1.58;;;;;;;14.29;47.97;101654.13;5006047;28;20054;-63
2022/05/29 02:54:33;;;;;;;4.15;1.58;;;;;;;14.28;47.87;101649.78;5003687;28;20058;-62
2022/05/29 02:57:02;;;;;;;5.47;1.70;;;;;;;14.26;47.57;101649.19;4999363;28;20061;-63
2022/05/29 02:59:36;;;;;;;8.32;2.10;;;;;;;14.26;48.02;101644.59;5006268;28;20093;-63
2022/05/29 03:02:13;;;;;;;6.22;1.83;;;;;;;14.24;47.59;101641.28;5006489;28;20142;-63
2022/05/29 03:04:50;;;;;;;6.40;1.85;;;;;;;14.24;47.92;101637.78;5004996;28;20042;-63
2022/05/29 03:07:39;;;;;;;5.82;1.70;;;;;;;14.22;47.57;101637.16;5006270;28;20054;-63
2022/05/29 03:10:15;;;;;;;4.20;1.60;;;;;;;14.21;47.53;101635.50;5005634;28;20047;-64
2022/05/29 03:12:55;;;;;;;7.47;1.50;;;;;;;14.20;47.64;101631.16;5006514;28;20082;-63
2022/05/29 03:15:36;;;;;;;6.43;2.03;;;;;;;14.20;47.62;101632.00;5006553;28;20085;-63
2022/05/29 03:18:16;;;;;;;6.90;1.85;;;;;;;14.19;47.67;101627.63;5005955;28;20066;-63
2022/05/29 03:20:56;;;;;;;10.55;1.90;;;;;;;14.19;47.92;101633.03;5006530;28;20073;-63
2022/05/29 03:23:41;;;;;;;4.57;2.13;;;;;;;14.20;47.93;101625.75;4999364;28;20084;-63
2022/05/29 03:26:18;;;;;;;5.20;1.23;;;;;;;14.20;47.82;101631.16;5005147;28;20058;-62
2022/05/29 03:28:51;;;;;;;7.25;2.05;;;;;;;14.19;48.22;101630.34;5006457;28;20078;-63
2022/05/29 03:31:25;;;;;;;5.40;1.55;;;;;;;14.18;48.07;101627.88;5005718;28;20089;-63
2022/05/29 03:33:54;;;;;;;3.53;1.45;;;;;;;14.16;48.07;101624.56;5004495;28;20046;-64
2022/05/29 03:36:23;;;;;;;4.60;1.77;;;;;;;14.16;48.23;101613.75;5003589;28;20074;-65
2022/05/29 03:38:50;;;;;;;5.72;1.40;;;;;;;14.15;48.18;101612.91;5000905;28;20078;-65
2022/05/29 03:41:27;;;;;;;6.90;1.77;;;;;;;14.16;48.27;101613.75;5005108;28;20361;-65
2022/05/29 03:43:54;;;;;;;8.25;1.70;;;;;;;14.16;48.03;101613.75;5004673;28;20050;-63
2022/05/29 03:46:22;;;;;;;10.30;1.75;;;;;;;14.15;48.27;101618.31;5005485;28;20058;-63
2022/05/29 03:48:50;;;;;;;8.57;2.28;;;;;;;14.15;48.41;101610.22;5004742;28;20046;-63
2022/05/29 03:51:19;;;;;;;6.72;2.08;;;;;;;14.18;48.45;101607.06;5008301;28;20452;-62
2022/05/29 03:53:47;;;;;;;7.60;1.92;;;;;;;14.17;48.79;101613.50;5005801;28;20065;-62
2022/05/29 03:56:15;;;;;;;4.43;1.95;;;;;;;14.16;48.36;101597.53;5004546;28;20046;-63
2022/05/29 03:58:42;;;;;;;4.88;2.25;;;;;;;14.15;48.30;101606.69;5004525;28;20084;-62
2022/05/29 04:01:10;;;;;;;7.47;1.85;;;;;;;14.14;48.32;101600.47;5004859;28;20069;-62
2022/05/29 04:03:38;;;;;;;4.78;2.05;;;;;;;14.14;48.50;101605.03;5004553;28;20243;-62
2022/05/29 04:06:06;;;;;;;6.88;1.70;;;;;;;14.12;48.71;101602.56;5003692;28;20051;-62
2022/05/29 04:14:07;;;;;;;9.15;1.98;;;;;;;14.09;48.88;101596.78;5005570;28;20074;-62
2022/05/29 04:16:34;;;;;;;7.00;2.10;;;;;;;14.08;48.97;101601.38;5003085;28;20074;-63
2022/05/29 04:19:02;;;;;;;7.28;1.92;;;;;;;14.08;48.53;101605.94;5004456;28;20053;-63
2022/05/29 04:21:30;;;;;;;5.32;2.05;;;;;;;14.07;48.47;101598.88;5004762;28;20050;-63
2022/05/29 04:23:59;;;;;;;6.43;2.38;;;;;;;14.06;48.78;101597.22;5005546;28;20488;-63
2022/05/29 04:26:27;;;;;;;3.58;1.65;;;;;;;14.04;49.14;101594.75;5005543;28;20046;-62
2022/05/29 04:28:54;;;;;;;4.40;1.70;;;;;;;14.03;49.32;101590.41;5003465;28;20081;-62
2022/05/29 04:31:22;;;;;;;5.47;2.00;;;;;;;14.04;48.74;101592.06;5000533;28;20050;-62
2022/05/29 04:33:49;;;;;;;6.50;1.60;;;;;;;14.02;48.75;101594.16;5004601;28;20054;-63
2022/05/29 04:36:17;;;;;;;5.85;1.85;;;;;;;14.00;48.48;101593.56;5004908;28;20050;-63
2022/05/29 04:38:44;;;;;;;5.25;1.60;;;;;;;13.99;48.97;101597.31;5003232;28;20070;-63
2022/05/29 04:41:13;;;;;;;8.80;1.90;;;;;;;13.99;48.87;101597.31;5004155;28;20514;-63
2022/05/29 04:43:42;;;;;;;4.78;1.67;;;;;;;13.98;49.10;101601.88;5009400;28;20109;-63
2022/05/29 04:46:10;;;;;;;5.63;2.33;;;;;;;13.98;49.81;101601.06;5000859;28;20085;-63
2022/05/29 04:48:37;;;;;;;7.85;1.75;;;;;;;13.95;49.56;101596.94;5000396;28;20110;-63
2022/05/29 04:51:06;;;;;;;10.27;2.22;;;;;;;13.96;49.72;101600.47;5001787;28;20565;-63
2022/05/29 04:53:34;;;;;;;8.57;2.47;;;;;;;13.94;50.38;101591.75;5001004;28;20109;-63
2022/05/29 04:56:01;;;;;;;4.30;1.90;;;;;;;13.93;50.50;101600.91;5003608;28;20084;-64
2022/05/29 04:58:31;;;;;;;8.02;1.95;;;;;;;13.92;50.74;101604.66;5003460;28;20082;-64
2022/05/29 05:01:01;;;;;;;8.93;2.60;;;;;;;13.90;50.56;101596.78;5005337;28;20066;-64
2022/05/29 05:03:29;;;;;;;6.72;1.60;;;;;;;13.88;51.15;101604.28;5004368;28;20054;-64
2022/05/29 05:05:57;;;;;;;7.90;2.25;;;;;;;13.86;51.24;101608.31;5002548;28;20081;-64
2022/05/29 05:08:25;;;;;;;5.97;2.17;;;;;;;13.81;51.62;101605.44;5002934;28;20098;-64
2022/05/29 05:10:52;;;;;;;5.03;2.33;;;;;;;13.78;52.38;101604.03;5003996;28;20047;-64
2022/05/29 05:13:20;;;;;;;7.35;2.13;;;;;;;13.78;52.22;101605.91;5003227;28;20090;-64
2022/05/29 05:15:49;;;;;;;6.65;1.80;;;;;;;13.79;52.21;101599.44;4998709;28;20047;-64
2022/05/29 05:18:17;;;;;;;8.70;2.10;;;;;;;13.79;52.35;101594.88;4642367;28;9999974;-66
2022/05/29 05:20:45;;;;;;;9.95;2.90;;;;;;;13.79;52.17;101597.56;4999809;28;20050;-67
2022/05/29 05:23:12;;;;;;;4.85;1.90;;;;;;;13.81;52.46;101591.94;5002000;28;20084;-67
2022/05/29 05:25:40;;;;;;;6.28;2.67;;;;;;;13.82;52.61;101594.41;4999695;28;20491;-67
2022/05/29 05:28:10;;;;;;;5.68;2.03;;;;;;;13.83;52.44;101595.25;4998868;28;20073;-66
2022/05/29 05:30:38;;;;;;;8.05;2.30;;;;;;;13.83;52.58;101592.53;4998665;28;20047;-66
2022/05/29 05:33:07;;;;;;;5.68;2.25;;;;;;;13.80;52.50;101590.28;4999092;28;20077;-69
2022/05/29 05:35:35;;;;;;;7.15;2.25;;;;;;;13.78;53.08;101587.81;5003768;28;20088;-68
2022/05/29 05:38:03;;;;;;;10.95;2.40;;;;;;;13.79;53.36;101583.22;4999719;28;20042;-65
2022/05/29 05:40:30;;;;;;;6.45;2.53;;;;;;;13.77;53.10;101588.88;4993187;28;20092;-64
2022/05/29 05:42:58;;;;;;;7.80;1.92;;;;;;;13.76;53.26;101589.09;4999813;28;20514;-69
2022/05/29 05:45:26;;;;;;;6.32;2.13;;;;;;;13.76;53.39;101587.22;4999708;28;20058;-63
2022/05/29 05:47:55;;;;;;;5.00;2.00;;;;;;;13.74;53.25;101585.78;5000444;28;20070;-64
2022/05/29 05:50:24;;;;;;;4.78;1.63;;;;;;;13.73;54.01;101587.66;5001732;28;20096;-65
2022/05/29 05:52:52;;;;;;;4.53;2.28;;;;;;;13.71;54.08;101588.94;4998434;28;20086;-64
2022/05/29 05:55:20;;;;;;;9.50;2.40;;;;;;;13.71;54.48;101594.34;5003570;28;20058;-64
2022/05/29 05:57:48;;;;;;;6.70;1.80;;;;;;;13.68;54.44;101593.72;4998951;28;20085;-64
2022/05/29 06:00:18;;;;;;;5.90;1.95;;;;;;;13.68;54.35;101591.03;4998106;28;20085;-64
2022/05/29 06:02:47;;;;;;;7.53;1.80;;;;;;;13.70;54.28;101595.38;4997323;28;20089;-64
2022/05/29 06:05:16;;;;;;;4.28;2.00;;;;;;;13.70;54.77;101593.50;4995707;28;20073;-64
2022/05/29 06:07:45;;;;;;;4.88;1.80;;;;;;;13.72;54.07;101585.19;4996381;28;20086;-65
2022/05/29 06:10:13;;;;;;;4.15;1.50;;;;;;;13.70;54.46;101585.41;4997685;28;20168;-68
2022/05/29 06:12:41;;;;;;;4.07;1.63;;;;;;;13.73;54.21;101584.13;4996651;28;20074;-66
2022/05/29 06:15:10;;;;;;;5.57;2.05;;;;;;;13.71;54.86;101583.53;4997945;28;20492;-62
2022/05/29 06:17:37;;;;;;;5.95;1.73;;;;;;;13.71;54.96;101581.66;4994845;28;20927;-67
2022/05/29 06:20:07;;;;;;;7.07;2.00;;;;;;;13.73;54.76;101578.72;4997778;28;20061;-67
2022/05/29 06:22:37;;;;;;;4.68;1.45;;;;;;;13.76;54.28;101580.97;4997786;28;20046;-67
2022/05/29 06:25:07;;;;;;;3.92;1.77;;;;;;;13.75;54.07;101576.63;4988787;28;20084;-67
2022/05/29 06:27:37;;;;;;;3.47;1.45;;;;;;;13.75;54.23;101573.94;4998749;28;20050;-66
2022/05/29 06:30:07;;;;;;;4.43;2.00;;;;;;;13.77;54.45;101588.03;4652288;28;10000075;-68
2022/05/29 06:32:35;;;;;;;7.88;2.50;;;;;;;13.77;54.62;101580.75;4999788;28;20228;-67
2022/05/29 06:35:04;;;;;;;4.85;1.77;;;;;;;13.76;54.21;101584.50;4998985;28;20046;-67
2022/05/29 06:37:32;;;;;;;7.20;1.85;;;;;;;13.77;54.00;101580.75;4989691;28;20072;-68
2022/05/29 06:40:00;;;;;;;5.20;1.98;;;;;;;13.77;54.49;101583.47;5001861;28;20103;-67
2022/05/29 06:42:29;;;;;;;6.68;1.90;;;;;;;13.78;54.70;101592.38;5001847;28;20050;-68
2022/05/29 06:44:58;;;;;;;3.42;1.67;;;;;;;13.76;54.87;101581.81;5000334;28;20086;-67
2022/05/29 06:47:27;;;;;;;7.65;1.63;;;;;;;13.77;54.75;101582.63;4994905;28;20479;-68
2022/05/29 06:49:54;;;;;;;4.03;1.65;;;;;;;13.77;54.67;101582.63;4994997;28;20526;-68
2022/05/29 06:52:22;;;;;;;7.20;2.40;;;;;;;13.77;54.82;101590.75;4996115;28;20140;-68
2022/05/29 06:54:50;;;;;;;6.65;2.15;;;;;;;13.77;54.94;101593.44;4998141;28;20074;-68
2022/05/29 06:57:36;;;;;;;5.78;2.38;;;;;;;13.76;55.06;101592.63;4998013;28;20092;-68
2022/05/29 07:08:28;;;;;;;7.07;2.83;;;;;;;13.72;55.19;101577.09;4998181;28;20061;-70
2022/05/29 07:10:57;;;;;;;6.15;1.98;;;;;;;13.76;55.34;101584.50;4998198;28;20049;-68
2022/05/29 07:13:25;;;;;;;6.90;2.30;;;;;;;13.77;55.15;101588.03;4997238;28;20050;-68
2022/05/29 07:15:54;;;;;;;6.32;1.70;;;;;;;13.76;55.17;101584.50;4998839;28;20424;-68
2022/05/29 07:18:22;;;;;;;6.57;2.08;;;;;;;13.77;55.46;101582.63;4995180;28;20061;-68
2022/05/29 07:20:50;;;;;;;3.67;2.08;;;;;;;13.76;55.65;101584.50;4996724;28;20078;-69
2022/05/29 07:23:18;;;;;;;12.77;2.70;;;;;;;13.79;55.64;101578.66;4993413;28;20078;-68
2022/05/29 07:25:45;;;;;;;3.85;1.88;;;;;;;13.81;55.61;101567.63;4999570;28;20061;-67
2022/05/29 07:28:13;;;;;;;5.70;2.10;;;;;;;13.89;55.85;101580.81;5001503;28;20110;-68
2022/05/29 07:30:41;;;;;;;5.72;2.00;;;;;;;13.92;55.60;101574.94;4999992;28;20108;-68
2022/05/29 07:33:10;;;;;;;3.08;1.55;;;;;;;13.93;55.27;101574.72;4997438;28;20046;-69
2022/05/29 07:35:38;;;;;;;5.07;1.92;;;;;;;13.93;55.79;101561.22;4996213;28;20077;-67
2022/05/29 07:38:05;;;;;;;5.70;1.85;;;;;;;13.96;55.57;101565.34;4996992;28;20562;-68
2022/05/29 07:40:33;;;;;;;5.53;2.45;;;;;;;13.97;55.52;101570.50;4994810;28;20221;-70
2022/05/29 07:43:18;;;;;;;6.50;1.90;;;;;;;13.99;55.61;101570.28;4998262;28;20081;-68
2022/05/29 07:45:47;;;;;;;6.78;1.73;;;;;;;13.98;55.75;101563.22;4995459;28;20145;-67
2022/05/29 07:48:18;;;;;;;7.60;2.10;;;;;;;13.99;55.97;101571.09;5000289;28;20064;-68
2022/05/29 07:50:46;;;;;;;4.68;2.53;;;;;;;14.00;55.94;101570.06;4998632;28;20051;-67
2022/05/29 07:53:14;;;;;;;4.60;1.83;;;;;;;14.01;55.44;101565.47;4999663;28;20054;-69
2022/05/29 07:55:43;;;;;;;3.13;1.73;;;;;;;14.01;55.34;101565.47;5002184;28;20089;-69
2022/05/29 07:58:12;;;;;;;6.60;1.95;;;;;;;14.01;55.79;101565.47;5002618;28;20078;-69
2022/05/29 08:00:41;;;;;;;6.88;2.10;;;;;;;14.06;55.83;101562.91;4999461;28;20085;-66
2022/05/29 08:03:09;;;;;;;5.20;1.88;;;;;;;14.11;55.86;101567.66;4996862;28;20065;-67
2022/05/29 08:05:39;;;;;;;4.75;2.05;;;;;;;14.15;55.85;101555.31;4999092;28;20065;-67
2022/05/29 08:08:10;;;;;;;7.80;2.30;;;;;;;14.20;55.50;101552.75;4996233;28;20066;-68
2022/05/29 08:10:39;;;;;;;9.75;2.85;;;;;;;14.23;55.54;101550.44;4997280;28;20056;-68
2022/05/29 08:13:08;;;;;;;7.60;2.28;;;;;;;14.24;55.74;101551.25;4992927;28;20074;-67
2022/05/29 08:15:36;;;;;;;4.28;1.98;;;;;;;14.23;55.53;101550.44;4998649;28;20050;-67
2022/05/29 08:18:05;;;;;;;3.35;1.83;;;;;;;14.24;55.22;101553.97;4992894;28;20363;-67
2022/05/29 08:20:36;;;;;;;11.02;2.03;;;;;;;14.22;55.59;101551.47;4997610;28;20443;-72
2022/05/29 08:23:06;;;;;;;6.55;2.33;;;;;;;14.18;55.01;101546.75;4996622;28;20346;-68
2022/05/29 08:31:05;;;;;;;7.22;1.83;;;;;;;14.26;55.05;101549.13;5000416;28;20066;-67
2022/05/29 08:33:36;;;;;;;8.20;2.35;;;;;;;14.28;54.67;101547.84;5004110;28;20077;-67
2022/05/29 08:36:07;;;;;;;8.00;1.98;;;;;;;14.32;54.83;101545.53;5002762;28;20042;-67
2022/05/29 08:38:40;;;;;;;7.10;1.85;;;;;;;14.34;54.62;101543.41;5005372;28;20082;-67
2022/05/29 08:41:12;;;;;;;6.45;1.98;;;;;;;14.33;54.35;101542.59;5003767;28;20061;-67
2022/05/29 08:43:55;;;;;;;3.53;1.98;;;;;;;14.34;54.57;101536.13;4986169;28;20062;-67
2022/05/29 08:46:29;;;;;;;5.53;1.65;;;;;;;14.34;54.50;101536.13;4994139;28;20069;-67
2022/05/29 08:48:58;;;;;;;7.32;2.10;;;;;;;14.34;54.38;101538.81;5004535;28;20065;-67
2022/05/29 08:51:43;;;;;;;4.93;1.80;;;;;;;14.35;54.56;101536.94;5003892;28;20108;-68
2022/05/29 08:54:15;;;;;;;8.02;2.13;;;;;;;14.32;54.43;101540.94;5004221;28;20050;-68
2022/05/29 08:56:51;;;;;;;7.75;1.92;;;;;;;14.31;54.25;101533.88;5004031;28;20053;-67
2022/05/29 08:59:34;;;;;;;4.53;1.52;;;;;;;14.33;53.82;101539.06;5004570;28;20510;-67
2022/05/29 09:02:10;;;;;;;3.75;1.45;;;;;;;14.33;53.79;101533.66;5002588;28;20157;-67
2022/05/29 09:04:45;;;;;;;6.68;2.47;;;;;;;14.33;53.67;101520.13;5004186;28;20054;-67
2022/05/29 09:07:17;;;;;;;4.10;1.70;;;;;;;14.33;53.45;101525.53;5003038;28;20069;-67
2022/05/29 09:09:51;;;;;;;6.65;1.88;;;;;;;14.33;53.56;101517.44;4990005;28;20053;-67
2022/05/29 09:12:24;;;;;;;8.85;2.00;;;;;;;14.36;53.29;101518.84;5003529;28;20073;-67
2022/05/29 09:14:53;;;;;;;9.63;2.25;;;;;;;14.36;53.47;101511.56;5003666;28;20073;-67
2022/05/29 09:17:29;;;;;;;6.18;1.73;;;;;;;14.34;53.67;101516.38;5002794;28;20046;-67
2022/05/29 09:20:01;;;;;;;9.43;1.85;;;;;;;14.32;53.50;101515.78;5004738;28;20099;-67
2022/05/29 09:22:34;;;;;;;5.95;1.80;;;;;;;14.31;53.20;101520.38;5004403;28;20073;-67
2022/05/29 09:25:09;;;;;;;7.07;2.30;;;;;;;14.32;53.75;101513.91;5004464;28;20149;-69
2022/05/29 09:27:38;;;;;;;4.50;2.30;;;;;;;14.33;53.66;101498.50;5005104;28;20053;-68
2022/05/29 09:30:07;;;;;;;4.93;1.50;;;;;;;14.34;53.62;101505.56;5002927;28;20058;-68
2022/05/29 09:32:50;;;;;;;8.32;2.67;;;;;;;14.34;53.98;101508.25;5001649;28;20085;-68
2022/05/29 09:35:24;;;;;;;6.18;1.73;;;;;;;14.34;54.03;101500.97;4988901;28;20078;-68
2022/05/29 09:38:00;;;;;;;6.28;2.63;;;;;;;14.35;54.22;101507.22;4996697;28;20074;-68
2022/05/29 09:40:33;;;;;;;5.90;1.65;;;;;;;14.33;54.49;101499.31;5002965;28;20085;-68
2022/05/29 09:43:14;;;;;;;7.10;2.00;;;;;;;14.34;53.99;101510.97;5003107;28;20038;-68
2022/05/29 09:45:42;;;;;;;4.97;1.77;;;;;;;14.39;54.81;101507.56;5003554;28;20077;-69
2022/05/29 09:51:18;;;;;;;5.40;1.67;;;;;;;14.32;54.52;101500.38;5001630;28;20118;-68
2022/05/29 09:53:50;;;;;;;9.00;1.92;;;;;;;14.33;54.65;101506.63;4998552;28;20074;-71
2022/05/29 09:56:27;;;;;;;3.70;1.75;;;;;;;14.34;55.00;101487.44;5000475;28;20051;-69
2022/05/29 09:58:59;;;;;;;6.97;2.05;;;;;;;14.37;54.78;101496.97;4997619;28;20054;-68
2022/05/29 10:01:30;;;;;;;7.47;1.50;;;;;;;14.39;54.68;101494.88;5002472;28;20054;-65
2022/05/29 10:04:00;;;;;;;3.28;1.50;;;;;;;14.40;54.52;101493.81;5000912;28;20051;-65
2022/05/29 10:06:32;;;;;;;4.75;1.77;;;;;;;14.40;54.79;101491.13;4989601;28;20061;-64
2022/05/29 10:09:13;;;;;;;3.47;1.40;;;;;;;14.43;54.70;101484.44;4998685;28;20476;-65
2022/05/29 10:11:45;;;;;;;9.38;1.73;;;;;;;14.44;54.57;101488.81;4997512;28;20054;-66
2022/05/29 10:14:27;;;;;;;3.25;1.17;;;;;;;14.45;54.96;101485.88;4993662;28;20097;-65
2022/05/29 10:16:56;;;;;;;3.95;1.50;;;;;;;14.44;55.10;101477.97;5002676;28;20141;-66
2022/05/29 10:19:36;;;;;;;4.47;1.15;;;;;;;14.47;55.14;101477.53;5001694;28;20054;-66
2022/05/29 10:22:12;;;;;;;4.88;1.80;;;;;;;14.49;55.08;101478.13;5001894;28;20562;-66
2022/05/29 10:24:41;;;;;;;3.45;1.27;;;;;;;14.50;55.05;101475.19;5001366;28;20076;-65
2022/05/29 10:27:14;;;;;;;7.82;2.22;;;;;;;14.50;55.43;101469.75;4999415;28;20069;-66
2022/05/29 10:29:43;;;;;;;4.20;1.40;;;;;;;14.53;55.44;101471.19;5001569;28;20058;-66
2022/05/29 10:32:26;;;;;;;3.70;1.40;;;;;;;14.55;55.18;101461.78;5002287;28;20050;-66
2022/05/29 10:35:05;;;;;;;2.80;1.48;;;;;;;14.59;55.00;101457.56;5003860;28;20467;-64
2022/05/29 10:37:39;;;;;;;8.52;1.77;;;;;;;14.63;55.40;101452.50;5003502;28;20135;-66
2022/05/29 10:40:20;;;;;;;4.90;2.17;;;;;;;14.67;55.26;101456.38;5004609;28;20460;-67
2022/05/29 10:42:51;;;;;;;5.85;1.42;;;;;;;14.70;55.16;101455.09;5003143;28;20070;-65
2022/05/29 10:45:22;;;;;;;4.15;1.40;;;;;;;14.73;54.73;101466.28;4993276;28;20046;-65
2022/05/29 10:48:33;;;;;;;4.97;1.55;;;;;;;14.72;54.66;101464.63;5002107;28;20150;-64
2022/05/29 10:51:09;;;;;;;3.50;1.33;;;;;;;14.73;55.64;101470.84;4945563;29;20066;-67
2022/05/29 10:54:00;;;;;;;8.73;1.42;;;;;;;14.73;55.19;101478.97;4938794;29;20071;-65
2022/05/29 10:56:37;;;;;;;4.38;1.50;;;;;;;14.70;54.89;101479.44;4939410;29;20151;-66
2022/05/29 10:59:40;;;;;;;3.03;1.27;;;;;;;14.69;54.63;101475.91;4597454;29;10001104;-64
2022/05/29 11:05:30;;;;;;;6.00;1.25;;;;;;;14.70;54.66;101487.56;4935084;29;20319;-65
2022/05/29 11:08:18;;;;;;;5.45;1.17;;;;;;;14.70;55.08;101490.25;4930331;29;20059;-64
2022/05/29 11:11:02;;;;;;;2.92;1.08;;;;;;;14.71;55.15;101494.63;4932781;29;20119;-65
2022/05/29 11:13:55;;;;;;;3.88;1.17;;;;;;;14.71;55.21;101484.63;4590006;29;10000226;-66
2022/05/29 11:16:34;;;;;;;3.38;1.20;;;;;;;14.72;55.95;101488.16;4933709;29;20213;-64
2022/05/29 11:19:14;;;;;;;6.30;1.90;;;;;;;14.73;56.26;101481.69;4937572;29;20058;-64
2022/05/29 11:21:54;;;;;;;5.68;1.60;;;;;;;14.72;56.29;101477.31;4942193;29;20055;-64
2022/05/29 11:24:45;;;;;;;3.38;1.27;;;;;;;14.72;56.30;101472.75;4945640;28;20101;-65
2022/05/29 11:27:27;;;;;;;4.78;1.20;;;;;;;14.72;56.33;101475.44;5000133;28;20081;-65
2022/05/29 11:30:08;;;;;;;3.17;1.20;;;;;;;14.72;56.86;101470.03;4998459;28;20049;-65
2022/05/29 11:32:56;;;;;;;6.22;1.40;;;;;;;14.73;56.42;101468.97;5002786;28;20106;-65
2022/05/29 11:35:37;;;;;;;6.55;1.77;;;;;;;14.73;56.82;101460.84;5005556;28;20089;-65
2022/05/29 11:38:26;;;;;;;5.45;1.50;;;;;;;14.74;56.66;101458.97;5007151;28;20080;-66
2022/05/29 11:41:02;;;;;;;2.97;1.30;;;;;;;14.74;56.78;101459.81;5005764;28;21750;-66
2022/05/29 11:43:35;;;;;;;3.17;1.30;;;;;;;14.75;57.31;101469.56;5004653;28;20054;-66
2022/05/29 11:52:00;;;;;;;3.70;1.25;;;;;;;14.78;57.22;101462.84;5003471;28;20535;-65
2022/05/29 11:54:34;;;;;;;4.95;1.85;;;;;;;14.76;57.31;101459.56;5005373;28;20109;-65
2022/05/29 11:57:08;;;;;;;5.45;2.17;;;;;;;14.79;57.20;101457.22;5001615;28;20049;-65
2022/05/29 11:59:46;;;;;;;7.25;2.45;;;;;;;14.79;57.26;101451.81;5003716;28;20047;-65
2022/05/29 12:02:24;;;;;;;5.68;2.25;;;;;;;14.82;57.17;101459.44;5001343;28;20110;-67
2022/05/29 12:04:59;;;;;;;5.78;2.15;;;;;;;14.80;57.17;101466.97;5001543;28;20459;-66
2022/05/29 12:07:33;;;;;;;5.82;1.90;;;;;;;14.81;57.27;101467.81;4998778;28;20081;-65
2022/05/29 12:10:07;;;;;;;6.20;2.28;;;;;;;14.82;57.13;101466.75;5001329;28;20427;-65
2022/05/29 12:12:42;;;;;;;6.30;2.50;;;;;;;14.82;57.44;101459.44;4998056;28;20081;-66
2022/05/29 12:15:14;;;;;;;8.98;3.03;;;;;;;14.80;57.13;101464.28;4999423;28;20046;-65
2022/05/29 12:17:47;;;;;;;6.82;3.20;;;;;;;14.80;57.40;101456.16;5000710;28;20054;-66
2022/05/29 12:20:21;;;;;;;9.07;3.30;;;;;;;14.81;57.08;101451.56;5006669;28;20054;-65
2022/05/29 12:22:55;;;;;;;10.13;2.58;;;;;;;14.80;57.15;101450.75;5002079;28;20076;-65